Time;durP1;ratioP1;P1;durP2;ratioP2;P2;SDS_P1;SDS_P2;PMS_P1;PMS_P2;Temp;Humidity;BMP_temperature;BMP_pressure;BME280_temperature;BME280_humidity;BME280_pressure;Samples;Min_cycle;Max_cycle;Signal;HPM_P1;HPM_P2
2022/01/12 00:01:43;;;;;;;36.95;19.33;;;4.40;99.90;;;;;;5100812;27;20047;-76
2022/01/12 00:04:10;;;;;;;35.90;19.23;;;4.10;99.90;;;;;;5117848;27;20087;-77
2022/01/12 00:06:36;;;;;;;42.30;20.42;;;4.10;99.90;;;;;;5118297;27;20122;-77
2022/01/12 00:09:06;;;;;;;41.03;20.67;;;4.70;99.90;;;;;;5082921;27;20047;-76
2022/01/12 00:11:33;;;;;;;41.10;19.67;;;4.60;99.90;;;;;;5101683;27;20046;-76
2022/01/12 00:13:59;;;;;;;44.78;20.52;;;4.10;99.90;;;;;;5136613;27;20447;-77
2022/01/12 00:16:25;;;;;;;39.22;20.13;;;3.80;99.90;;;;;;5067599;27;20082;-77
2022/01/12 00:18:50;;;;;;;45.85;21.90;;;4.20;99.90;;;;;;5100469;27;20054;-77
2022/01/12 00:21:17;;;;;;;42.20;21.85;;;4.40;99.90;;;;;;5100620;27;20108;-77
2022/01/12 00:23:42;;;;;;;42.95;20.45;;;4.40;99.90;;;;;;5117529;27;20458;-77
2022/01/12 00:26:12;;;;;;;47.47;21.60;;;4.10;99.90;;;;;;5135501;27;20074;-77
2022/01/12 00:34:10;;;;;;;40.40;20.33;;;4.40;99.90;;;;;;5117536;27;20544;-77
2022/01/12 00:36:36;;;;;;;46.05;20.75;;;4.30;99.90;;;;;;5135374;27;20043;-77
2022/01/12 00:39:05;;;;;;;48.83;22.98;;;4.20;99.90;;;;;;5099949;27;20046;-77
2022/01/12 00:41:31;;;;;;;48.80;21.77;;;4.50;99.90;;;;;;5116869;27;20479;-77
2022/01/12 00:44:00;;;;;;;43.58;21.55;;;4.10;99.90;;;;;;5099858;27;20115;-77
2022/01/12 00:46:30;;;;;;;47.00;20.65;;;4.20;99.90;;;;;;5100490;27;20035;-77
2022/01/12 00:48:58;;;;;;;57.47;23.20;;;5.10;99.90;;;;;;5117331;27;20100;-77
2022/01/12 00:51:26;;;;;;;53.35;23.50;;;4.10;99.90;;;;;;5083021;27;20112;-77
2022/01/12 00:53:56;;;;;;;44.15;21.77;;;4.10;99.90;;;;;;5116794;27;20471;-77
2022/01/12 00:56:23;;;;;;;39.80;20.17;;;4.30;99.90;;;;;;5084023;27;20062;-77
2022/01/12 00:58:48;;;;;;;46.33;21.50;;;4.10;99.90;;;;;;5100668;27;20070;-77
2022/01/12 01:01:14;;;;;;;48.83;22.15;;;4.30;99.90;;;;;;5116888;27;20035;-77
2022/01/12 01:03:40;;;;;;;56.63;22.67;;;4.20;99.90;;;;;;5100409;27;20039;-77
2022/01/12 01:06:08;;;;;;;47.05;20.77;;;4.60;99.90;;;;;;5116679;27;20043;-77
2022/01/12 01:08:34;;;;;;;54.38;22.40;;;4.20;99.90;;;;;;5083236;27;20059;-77
2022/01/12 01:11:00;;;;;;;53.28;21.65;;;4.50;99.90;;;;;;5083918;27;20459;-77
2022/01/12 01:13:34;;;;;;;47.00;21.17;;;4.60;99.90;;;;;;5099483;27;20046;-77
2022/01/12 01:16:11;;;;;;;49.22;21.77;;;4.20;99.90;;;;;;5116572;27;20497;-77
2022/01/12 01:26:51;;;;;;;58.70;22.90;;;5.20;99.90;;;;;;5117403;28;20054;-77
2022/01/12 01:29:17;;;;;;;62.90;25.38;;;4.40;99.90;;;;;;5117339;28;20146;-77
2022/01/12 01:31:45;;;;;;;57.00;23.17;;;4.40;99.90;;;;;;5082840;28;20051;-78
2022/01/12 01:34:13;;;;;;;59.05;22.08;;;4.30;99.90;;;;;;5099572;28;20054;-77
2022/01/12 01:36:45;;;;;;;60.88;23.40;;;4.20;99.90;;;;;;5099927;28;20043;-77
2022/01/12 01:39:14;;;;;;;62.50;25.08;;;4.60;99.90;;;;;;5099187;28;20049;-77
2022/01/12 01:41:41;;;;;;;52.78;22.60;;;4.60;99.90;;;;;;5134584;28;20050;-77
2022/01/12 01:54:54;;;;;;;57.65;22.90;;;4.90;99.90;;;;;;5116200;28;20047;-78
2022/01/12 01:57:20;;;;;;;62.70;23.10;;;4.70;99.90;;;;;;5082296;28;20080;-78
2022/01/12 01:59:46;;;;;;;78.78;25.83;;;4.40;99.90;;;;;;5099317;28;20046;-77
2022/01/12 02:02:13;;;;;;;54.55;21.85;;;4.70;99.90;;;;;;5116525;28;20039;-78
2022/01/12 02:04:39;;;;;;;60.90;21.80;;;4.30;99.90;;;;;;5117050;28;20051;-78
2022/01/12 02:07:05;;;;;;;62.92;22.77;;;4.20;99.90;;;;;;5117090;28;20369;-77
2022/01/12 02:09:31;;;;;;;83.68;25.00;;;4.40;99.90;;;;;;5082279;28;20058;-77
2022/01/12 02:11:57;;;;;;;84.60;26.35;;;4.10;99.90;;;;;;5116851;28;20471;-77
2022/01/12 02:14:22;;;;;;;70.20;25.35;;;5.20;99.90;;;;;;5116144;28;20392;-77
2022/01/12 02:16:54;;;;;;;60.15;21.98;;;4.30;99.90;;;;;;5082289;28;20546;-77
2022/01/12 02:35:53;;;;;;;47.17;20.30;;;4.40;99.90;;;;;;5105582;27;20086;-78
2022/01/12 02:41:06;;;;;;;57.95;20.80;;;4.60;99.90;;;;;;5068356;27;20047;-77
2022/01/12 02:51:29;;;;;;;43.30;19.63;;;4.50;99.90;;;;;;5119479;27;20134;-78
2022/01/12 02:53:55;;;;;;;48.50;20.13;;;4.40;99.90;;;;;;5104952;27;20552;-78
2022/01/12 02:56:24;;;;;;;46.50;19.40;;;4.30;99.90;;;;;;5102326;27;20047;-77
2022/01/12 02:58:51;;;;;;;72.43;23.02;;;4.90;99.90;;;;;;5119983;27;20042;-78
2022/01/12 03:04:00;;;;;;;51.22;20.45;;;4.80;99.90;;;;;;5120073;27;20059;-78
2022/01/12 03:06:33;;;;;;;54.65;21.63;;;5.00;99.90;;;;;;5102168;27;20047;-78
2022/01/12 03:09:02;;;;;;;46.35;20.45;;;5.30;99.90;;;;;;5102776;27;20048;-78
2022/01/12 03:11:29;;;;;;;69.25;18.83;;;5.00;99.90;;;;;;5102207;27;20100;-78
2022/01/12 03:13:55;;;;;;;58.03;19.67;;;4.40;99.90;;;;;;5101872;27;20051;-78
2022/01/12 03:16:24;;;;;;;49.33;19.50;;;4.60;99.90;;;;;;5119169;27;20107;-78
2022/01/12 03:18:55;;;;;;;62.30;20.33;;;4.80;99.90;;;;;;5085360;27;20471;-78
2022/01/12 03:21:24;;;;;;;66.15;22.15;;;4.30;99.90;;;;;;5137814;27;20051;-78
2022/01/12 03:23:51;;;;;;;110.82;25.65;;;5.40;99.90;;;;;;5118750;27;20035;-78
2022/01/12 03:26:17;;;;;;;81.45;21.92;;;4.40;99.90;;;;;;5136819;27;20043;-78
2022/01/12 03:28:44;;;;;;;69.45;22.48;;;4.60;99.90;;;;;;5101633;27;20047;-78
2022/01/12 03:31:19;;;;;;;66.53;21.60;;;4.70;99.90;;;;;;5118984;27;20082;-78
2022/01/12 03:39:07;;;;;;;70.40;25.13;;;4.10;99.90;;;;;;5080190;27;20456;-78
2022/01/12 03:41:35;;;;;;;51.28;20.45;;;4.20;99.90;;;;;;5118477;27;20111;-77
2022/01/12 03:44:04;;;;;;;62.35;21.70;;;4.50;99.90;;;;;;5100597;27;20078;-78
2022/01/12 03:46:46;;;;;;;45.63;20.55;;;4.10;99.90;;;;;;5118028;27;20039;-78
2022/01/12 03:49:13;;;;;;;61.22;22.33;;;4.20;99.90;;;;;;5136360;27;20054;-78
2022/01/12 03:51:39;;;;;;;79.07;21.70;;;4.60;99.90;;;;;;5118187;27;20054;-78
2022/01/12 03:54:05;;;;;;;58.28;20.38;;;4.40;99.90;;;;;;5117675;27;20042;-78
2022/01/12 03:56:30;;;;;;;56.70;19.58;;;4.40;99.90;;;;;;5101985;27;20046;-78
2022/01/12 03:58:56;;;;;;;176.20;25.10;;;4.30;99.90;;;;;;5117889;27;20195;-77
2022/01/12 04:01:22;;;;;;;176.32;28.05;;;4.10;99.90;;;;;;5136203;27;20049;-77
2022/01/12 04:03:58;;;;;;;365.15;37.03;;;4.10;99.90;;;;;;5101232;27;20403;-77
2022/01/12 04:09:08;;;;;;;144.77;21.35;;;4.70;99.90;;;;;;5089214;27;20050;-77
2022/01/12 04:11:34;;;;;;;333.40;33.85;;;4.30;99.90;;;;;;5083937;27;20616;-77
2022/01/12 04:14:00;;;;;;;224.25;25.77;;;3.90;99.90;;;;;;5117653;27;20043;-77
2022/01/12 04:16:26;;;;;;;378.88;32.20;;;4.30;99.90;;;;;;5100824;27;20360;-77
2022/01/12 04:18:51;;;;;;;262.13;25.92;;;4.10;99.90;;;;;;5101113;27;20092;-77
2022/01/12 04:21:25;;;;;;;333.35;30.83;;;4.80;99.90;;;;;;5135742;27;20043;-77
2022/01/12 04:23:50;;;;;;;246.27;23.83;;;3.90;99.90;;;;;;5084968;27;20043;-78
2022/01/12 04:26:16;;;;;;;282.42;29.00;;;4.90;99.90;;;;;;5117349;27;20054;-77
2022/01/12 04:28:43;;;;;;;138.82;18.92;;;3.70;99.90;;;;;;5100570;27;20537;-78
2022/01/12 04:31:10;;;;;;;232.80;25.20;;;3.60;99.90;;;;;;5135603;27;20049;-78
2022/01/12 04:33:37;;;;;;;178.05;20.85;;;4.00;99.90;;;;;;5100491;27;20047;-77
2022/01/12 04:36:04;;;;;;;213.75;24.92;;;3.50;99.90;;;;;;5117293;27;20053;-77
2022/01/12 04:38:33;;;;;;;120.30;18.10;;;3.50;99.90;;;;;;5135603;27;20182;-77
2022/01/12 04:41:04;;;;;;;117.25;18.05;;;4.60;99.90;;;;;;5117033;27;20044;-77
2022/01/12 04:43:30;;;;;;;154.90;20.25;;;3.50;99.90;;;;;;5101393;27;20043;-77
2022/01/12 04:48:49;;;;;;;123.68;19.08;;;4.00;99.90;;;;;;5116781;27;20050;-77
2022/01/12 04:51:15;;;;;;;139.15;19.08;;;3.90;99.90;;;;;;5099795;27;20039;-77
2022/01/12 04:53:40;;;;;;;87.85;15.40;;;3.90;99.90;;;;;;5099928;27;20179;-77
2022/01/12 04:56:06;;;;;;;95.65;16.25;;;3.50;99.90;;;;;;5082602;27;20047;-77
2022/01/12 04:58:32;;;;;;;114.68;16.70;;;3.40;99.90;;;;;;5116416;27;20039;-77
2022/01/12 05:01:06;;;;;;;112.43;18.88;;;3.40;99.90;;;;;;5116732;27;20506;-77
2022/01/12 05:06:36;;;;;;;95.07;18.52;;;3.50;99.90;;;;;;5103193;27;20047;-77
2022/01/12 05:14:13;;;;;;;103.28;14.32;;;3.80;99.90;;;;;;5102088;27;20047;-77
2022/01/12 05:16:39;;;;;;;106.55;16.35;;;4.00;99.90;;;;;;5065705;27;20050;-77
2022/01/12 05:19:05;;;;;;;92.35;14.98;;;3.70;99.90;;;;;;5082586;27;20039;-77
2022/01/12 05:21:31;;;;;;;109.40;17.33;;;4.00;99.90;;;;;;5066252;27;20047;-77
2022/01/12 05:24:00;;;;;;;102.35;15.30;;;3.70;99.90;;;;;;5099648;27;20111;-77
2022/01/12 05:26:25;;;;;;;128.32;17.45;;;3.60;99.90;;;;;;5116923;28;20108;-77
2022/01/12 05:28:51;;;;;;;93.03;15.00;;;4.30;99.90;;;;;;5100540;27;20405;-77
2022/01/12 05:31:17;;;;;;;66.30;12.93;;;4.00;99.90;;;;;;5099497;28;20551;-77
2022/01/12 05:33:47;;;;;;;78.97;13.98;;;4.00;99.90;;;;;;5082431;28;20051;-77
2022/01/12 05:36:15;;;;;;;54.60;13.18;;;3.70;99.90;;;;;;5100161;28;20059;-76
2022/01/12 05:38:41;;;;;;;81.93;14.52;;;3.70;99.90;;;;;;5099853;28;20112;-76
2022/01/12 05:41:07;;;;;;;53.10;12.23;;;3.20;99.90;;;;;;5099041;28;20043;-77
2022/01/12 05:43:35;;;;;;;84.38;15.60;;;3.80;99.90;;;;;;5116411;28;20095;-77
2022/01/12 05:46:13;;;;;;;97.68;14.23;;;3.40;99.90;;;;;;5134471;28;20055;-77
2022/01/12 05:51:28;;;;;;;78.20;14.25;;;3.20;99.90;;;;;;5116286;28;20047;-77
2022/01/12 05:53:53;;;;;;;80.47;14.05;;;3.50;99.90;;;;;;5116094;28;20093;-77
2022/01/12 05:56:20;;;;;;;80.22;15.05;;;3.20;99.90;;;;;;5116006;28;20039;-76
2022/01/12 05:58:46;;;;;;;58.15;13.30;;;3.30;99.90;;;;;;5082626;28;20039;-76
2022/01/12 06:01:12;;;;;;;49.15;13.35;;;3.40;99.90;;;;;;5115759;28;20046;-77
2022/01/12 06:03:37;;;;;;;53.75;14.38;;;3.00;99.90;;;;;;5099236;28;20043;-76
2022/01/12 06:06:03;;;;;;;51.30;13.10;;;3.70;99.90;;;;;;5099498;27;20047;-76
2022/01/12 06:08:29;;;;;;;60.72;13.90;;;3.00;99.90;;;;;;5102070;27;20554;-76
2022/01/12 06:10:55;;;;;;;55.40;12.75;;;3.50;99.90;;;;;;5103221;27;20055;-77
2022/01/12 06:13:20;;;;;;;33.60;11.93;;;3.50;99.90;;;;;;5103579;27;20064;-77
2022/01/12 06:15:46;;;;;;;45.55;11.32;;;3.20;99.90;;;;;;5120135;27;20039;-76
2022/01/12 06:18:12;;;;;;;48.58;13.65;;;3.70;99.90;;;;;;5119783;27;20053;-76
2022/01/12 06:20:38;;;;;;;41.70;11.30;;;2.90;99.90;;;;;;5085818;27;20116;-77
2022/01/12 06:23:03;;;;;;;78.22;14.38;;;3.10;99.90;;;;;;5120007;27;20125;-76
2022/01/12 06:25:29;;;;;;;63.08;13.05;;;3.60;99.90;;;;;;5068973;27;20479;-77
2022/01/12 06:28:08;;;;;;;42.10;11.48;;;3.30;99.90;;;;;;5120474;27;20100;-76
2022/01/12 06:33:18;;;;;;;37.70;11.05;;;2.80;99.90;;;;;;5120613;27;20070;-77
2022/01/12 06:35:44;;;;;;;46.65;12.20;;;3.10;99.90;;;;;;5137868;27;20051;-77
2022/01/12 06:38:09;;;;;;;48.08;11.63;;;2.70;99.90;;;;;;5119938;27;20046;-77
2022/01/12 06:40:35;;;;;;;19.65;9.25;;;2.70;99.90;;;;;;5137872;27;20086;-77
2022/01/12 06:43:02;;;;;;;52.47;12.25;;;3.10;99.90;;;;;;5102972;27;20054;-77
2022/01/12 06:45:28;;;;;;;76.03;13.45;;;3.00;99.90;;;;;;5119489;27;20104;-77
2022/01/12 06:47:53;;;;;;;38.00;10.13;;;2.70;99.90;;;;;;5085890;27;20039;-76
2022/01/12 06:50:19;;;;;;;46.33;12.25;;;3.60;99.90;;;;;;5119581;27;20087;-77
2022/01/12 06:52:46;;;;;;;42.10;10.45;;;2.90;99.90;;;;;;5119244;27;20043;-76
2022/01/12 06:55:12;;;;;;;34.20;10.25;;;3.40;99.90;;;;;;5102470;27;20039;-76
2022/01/12 06:57:38;;;;;;;42.83;9.45;;;3.30;99.90;;;;;;5119569;27;20126;-76
2022/01/12 07:00:05;;;;;;;64.60;10.00;;;3.10;99.90;;;;;;5085165;27;20051;-76
2022/01/12 07:02:30;;;;;;;59.67;10.40;;;2.70;99.90;;;;;;5102265;27;20043;-76
2022/01/12 07:04:56;;;;;;;61.60;10.18;;;2.50;99.90;;;;;;5137200;27;20054;-76
2022/01/12 07:07:23;;;;;;;82.20;12.48;;;3.30;99.90;;;;;;5119010;27;20039;-76
2022/01/12 07:09:50;;;;;;;79.72;11.35;;;2.80;99.90;;;;;;5118452;27;20055;-77
2022/01/12 07:12:16;;;;;;;52.30;9.82;;;3.10;99.90;;;;;;5137031;27;20054;-76
2022/01/12 07:14:42;;;;;;;56.50;11.25;;;2.80;99.90;;;;;;5119687;27;20113;-76
2022/01/12 07:17:10;;;;;;;76.80;12.55;;;2.70;99.90;;;;;;5137004;27;20054;-76
2022/01/12 07:19:36;;;;;;;64.53;11.82;;;3.30;99.90;;;;;;5101587;27;20100;-76
2022/01/12 07:22:02;;;;;;;40.53;8.93;;;2.60;99.90;;;;;;5137212;27;20122;-76
2022/01/12 07:24:28;;;;;;;61.92;9.63;;;2.40;99.90;;;;;;5101925;27;20465;-77
2022/01/12 07:26:54;;;;;;;48.92;8.45;;;2.60;99.90;;;;;;5085225;27;20078;-76
2022/01/12 07:29:20;;;;;;;64.88;11.40;;;3.20;99.90;;;;;;5118325;27;20044;-76
2022/01/12 07:31:46;;;;;;;63.33;10.30;;;3.00;99.90;;;;;;5101395;27;20372;-76
2022/01/12 07:34:14;;;;;;;52.38;9.77;;;2.50;99.90;;;;;;5137257;27;20054;-77
2022/01/12 07:36:43;;;;;;;51.22;9.68;;;2.60;99.90;;;;;;5101629;27;20039;-76
2022/01/12 07:39:09;;;;;;;67.78;11.00;;;3.30;99.90;;;;;;5102061;27;20054;-76
2022/01/12 07:41:35;;;;;;;111.30;13.70;;;2.80;99.90;;;;;;5084543;27;20047;-76
2022/01/12 07:44:01;;;;;;;90.80;11.20;;;3.20;99.90;;;;;;5118338;27;20083;-76
2022/01/12 07:46:26;;;;;;;69.72;10.38;;;2.60;99.90;;;;;;5101247;27;20055;-76
2022/01/12 07:48:52;;;;;;;36.03;7.88;;;2.80;99.90;;;;;;5100856;27;20047;-76
2022/01/12 07:51:18;;;;;;;121.53;13.70;;;3.10;99.90;;;;;;5118141;27;20078;-77
2022/01/12 07:53:45;;;;;;;105.65;11.98;;;2.90;99.90;;;;;;5101092;27;20043;-77
2022/01/12 07:56:11;;;;;;;72.90;9.63;;;2.70;99.90;;;;;;5118221;27;20051;-77
2022/01/12 07:58:36;;;;;;;49.05;9.13;;;2.50;99.90;;;;;;5101075;27;20054;-77
2022/01/12 08:01:02;;;;;;;66.57;9.65;;;3.20;99.90;;;;;;5136190;27;20035;-77
2022/01/12 08:03:28;;;;;;;93.40;9.82;;;3.60;99.90;;;;;;5117995;27;20043;-77
2022/01/12 08:05:54;;;;;;;43.47;7.75;;;2.70;99.90;;;;;;5117822;27;20043;-77
2022/01/12 08:08:20;;;;;;;61.55;8.52;;;2.70;99.90;;;;;;5101185;27;20039;-76
2022/01/12 08:10:45;;;;;;;45.28;8.07;;;2.80;99.90;;;;;;5117405;27;20058;-77
2022/01/12 08:13:11;;;;;;;81.80;10.13;;;2.60;99.90;;;;;;5136352;27;20082;-76
2022/01/12 08:15:37;;;;;;;75.70;8.95;;;3.60;99.90;;;;;;5084695;27;20100;-77
2022/01/12 08:18:03;;;;;;;49.40;7.10;;;2.70;99.90;;;;;;5117305;27;20082;-76
2022/01/12 08:20:29;;;;;;;76.95;9.80;;;3.30;99.90;;;;;;5100365;27;20039;-77
2022/01/12 08:22:55;;;;;;;47.47;7.63;;;3.60;99.90;;;;;;5117306;27;20050;-76
2022/01/12 08:25:21;;;;;;;45.78;6.90;;;2.70;99.90;;;;;;5135661;27;20035;-76
2022/01/12 08:27:48;;;;;;;48.65;6.88;;;3.30;99.90;;;;;;5135695;27;20090;-77
2022/01/12 08:30:17;;;;;;;56.40;6.65;;;2.80;99.90;;;;;;5116659;27;20039;-77
2022/01/12 08:32:48;;;;;;;66.65;7.85;;;3.20;99.90;;;;;;5117553;27;20553;-77
2022/01/12 08:35:15;;;;;;;48.67;7.35;;;3.10;99.90;;;;;;5136156;27;20039;-76
2022/01/12 08:37:41;;;;;;;30.52;6.28;;;2.70;99.90;;;;;;5135731;27;20070;-79
2022/01/12 08:40:08;;;;;;;46.95;7.60;;;3.00;99.90;;;;;;5136587;27;20483;-78
2022/01/12 08:42:34;;;;;;;33.08;6.15;;;2.60;99.90;;;;;;5135473;27;20047;-77
2022/01/12 08:45:01;;;;;;;69.40;8.93;;;3.50;99.90;;;;;;5084283;27;20047;-79
2022/01/12 08:47:27;;;;;;;40.65;7.35;;;3.00;99.90;;;;;;5100611;27;20047;-76
2022/01/12 08:49:53;;;;;;;50.60;7.93;;;3.10;99.90;;;;;;5135296;27;20051;-77
2022/01/12 08:52:19;;;;;;;54.28;8.15;;;2.90;99.90;;;;;;5135289;27;20106;-77
2022/01/12 08:54:44;;;;;;;63.50;8.75;;;3.70;99.90;;;;;;5135195;27;20387;-77
2022/01/12 08:57:10;;;;;;;65.95;7.57;;;2.90;99.90;;;;;;5135152;27;20046;-76
2022/01/12 08:59:36;;;;;;;68.95;8.80;;;3.00;99.90;;;;;;5135051;27;20042;-76
2022/01/12 09:02:02;;;;;;;91.18;12.85;;;2.90;99.90;;;;;;5135095;27;20043;-77
2022/01/12 09:04:28;;;;;;;56.33;7.75;;;2.50;99.90;;;;;;5116971;27;20100;-76
2022/01/12 09:06:55;;;;;;;63.25;7.88;;;3.20;99.90;;;;;;5117141;27;20039;-77
2022/01/12 09:09:22;;;;;;;49.17;6.55;;;2.60;99.90;;;;;;5099786;27;20093;-76
2022/01/12 09:11:48;;;;;;;72.72;9.35;;;3.90;99.90;;;;;;5135831;27;20051;-76
2022/01/12 09:14:15;;;;;;;83.38;9.43;;;3.70;99.90;;;;;;5134889;27;20050;-77
2022/01/12 09:16:41;;;;;;;43.47;6.05;;;3.00;99.90;;;;;;5100818;27;20059;-75
2022/01/12 09:19:09;;;;;;;49.58;6.32;;;3.40;99.90;;;;;;5099572;28;20050;-80
2022/01/12 09:21:34;;;;;;;65.82;7.85;;;3.30;99.90;;;;;;5099765;28;20039;-79
2022/01/12 09:24:00;;;;;;;66.80;7.32;;;4.00;99.90;;;;;;5099388;28;20387;-80
2022/01/12 09:26:26;;;;;;;52.85;7.85;;;3.30;99.90;;;;;;5116836;27;20100;-75
2022/01/12 09:28:52;;;;;;;55.80;8.10;;;3.50;99.90;;;;;;5099507;28;20043;-75
2022/01/12 09:31:18;;;;;;;78.15;7.93;;;3.30;99.90;;;;;;5083696;27;20448;-74
2022/01/12 09:33:43;;;;;;;49.28;7.45;;;4.20;99.90;;;;;;5116466;28;20090;-75
2022/01/12 09:36:09;;;;;;;65.95;8.00;;;3.30;99.90;;;;;;5100396;28;20456;-73
2022/01/12 09:38:35;;;;;;;45.38;5.93;;;3.60;99.90;;;;;;5116964;28;20047;-73
2022/01/12 09:41:02;;;;;;;38.25;6.10;;;3.20;99.90;;;;;;5099795;28;20051;-73
2022/01/12 09:43:30;;;;;;;22.77;5.90;;;3.70;99.90;;;;;;5138341;27;20047;-73
2022/01/12 09:45:56;;;;;;;38.88;6.18;;;3.40;99.90;;;;;;5120702;27;20130;-73
2022/01/12 09:48:24;;;;;;;72.70;7.28;;;3.60;99.90;;;;;;5138642;27;20039;-73
2022/01/12 09:50:53;;;;;;;69.63;7.18;;;2.90;99.90;;;;;;5138765;27;20047;-74
2022/01/12 09:53:20;;;;;;;72.90;10.30;;;3.70;99.90;;;;;;5120519;27;20043;-74
2022/01/12 09:55:47;;;;;;;83.13;7.60;;;3.50;99.90;;;;;;5120310;27;20159;-74
2022/01/12 09:58:12;;;;;;;57.00;8.00;;;4.20;99.90;;;;;;5139093;27;20383;-74
2022/01/12 10:00:38;;;;;;;48.00;7.22;;;3.40;99.90;;;;;;5138949;27;20046;-74
2022/01/12 10:03:12;;;;;;;57.58;6.20;;;3.40;99.90;;;;;;5120185;27;20039;-74
2022/01/12 10:05:38;;;;;;;39.95;5.75;;;3.50;99.90;;;;;;5139069;27;20054;-74
2022/01/12 10:08:12;;;;;;;51.75;6.28;;;3.40;99.90;;;;;;5139248;27;20047;-74
2022/01/12 10:10:39;;;;;;;46.05;6.07;;;3.20;99.90;;;;;;5138055;27;20055;-74
2022/01/12 10:13:15;;;;;;;57.58;6.43;;;3.60;99.90;;;;;;5103028;27;20047;-74
2022/01/12 10:15:42;;;;;;;37.22;5.70;;;3.70;99.90;;;;;;5120531;27;20459;-74
2022/01/12 10:18:08;;;;;;;37.58;5.30;;;3.50;99.90;;;;;;5120766;27;20122;-74
2022/01/12 10:20:43;;;;;;;42.92;6.05;;;3.50;99.90;;;;;;5120088;27;20131;-74
2022/01/12 10:23:11;;;;;;;52.55;6.50;;;3.50;99.90;;;;;;5120117;27;20040;-75
2022/01/12 10:25:37;;;;;;;39.10;5.50;;;4.40;99.90;;;;;;5120779;27;20047;-74
2022/01/12 10:28:23;;;;;;;19.38;5.10;;;3.60;99.90;;;;;;5119689;27;20043;-74
2022/01/12 10:31:01;;;;;;;49.42;7.93;;;3.90;99.90;;;;;;5119672;27;20053;-75
2022/01/12 10:33:30;;;;;;;63.28;7.22;;;3.90;99.90;;;;;;5138500;27;20043;-75
2022/01/12 10:35:58;;;;;;;40.35;5.72;;;4.80;99.90;;;;;;5138230;27;20440;-74
2022/01/12 10:38:25;;;;;;;22.00;4.90;;;4.30;99.90;;;;;;5119699;27;20096;-73
2022/01/12 10:41:01;;;;;;;35.55;5.63;;;4.80;99.90;;;;;;5119476;27;20047;-73
2022/01/12 10:43:44;;;;;;;32.08;4.28;;;4.00;99.90;;;;;;5118769;27;20400;-73
2022/01/12 10:46:18;;;;;;;41.50;5.57;;;4.60;99.90;;;;;;5137671;27;20047;-73
2022/01/12 10:48:47;;;;;;;34.15;5.55;;;4.20;99.90;;;;;;5119387;27;20074;-73
2022/01/12 10:51:31;;;;;;;30.60;5.78;;;3.90;99.90;;;;;;5119170;27;20039;-73
2022/01/12 10:54:03;;;;;;;42.55;5.60;;;4.20;99.90;;;;;;5136838;27;20111;-74
2022/01/12 10:56:29;;;;;;;33.85;4.88;;;4.60;99.90;;;;;;5119284;27;20452;-73
2022/01/12 10:58:57;;;;;;;31.45;4.85;;;4.30;99.90;;;;;;5137203;27;20042;-74
2022/01/12 11:01:28;;;;;;;30.33;4.63;;;4.50;99.90;;;;;;5119120;27;20126;-73
2022/01/12 11:03:54;;;;;;;48.60;6.35;;;4.30;99.90;;;;;;5119192;27;20058;-74
2022/01/12 11:06:21;;;;;;;31.33;5.18;;;4.70;99.90;;;;;;5137360;27;20134;-73
2022/01/12 11:08:49;;;;;;;40.00;5.38;;;5.20;99.90;;;;;;5102014;27;20055;-74
2022/01/12 11:11:20;;;;;;;30.45;4.63;;;4.40;99.90;;;;;;5118956;27;20094;-73
2022/01/12 11:13:47;;;;;;;63.58;7.00;;;5.10;99.90;;;;;;5118760;27;20043;-74
2022/01/12 11:16:13;;;;;;;18.30;4.43;;;4.80;99.90;;;;;;5118392;27;20372;-74
2022/01/12 11:18:40;;;;;;;28.23;5.07;;;4.80;99.90;;;;;;5118660;27;20039;-74
2022/01/12 11:21:22;;;;;;;34.13;5.60;;;4.80;99.90;;;;;;5136917;27;20099;-77
2022/01/12 11:23:49;;;;;;;17.23;4.43;;;4.70;99.90;;;;;;5119161;27;20115;-76
2022/01/12 11:26:17;;;;;;;11.98;4.50;;;5.00;99.90;;;;;;5084949;27;20054;-77
2022/01/12 11:28:44;;;;;;;23.75;5.05;;;5.30;99.90;;;;;;5117882;27;20055;-77
2022/01/12 11:31:11;;;;;;;18.02;5.20;;;4.80;99.90;;;;;;5100631;27;20514;-76
2022/01/12 11:33:40;;;;;;;21.92;4.28;;;5.10;99.90;;;;;;5085437;27;20062;-76
2022/01/12 11:36:23;;;;;;;13.98;4.53;;;4.90;99.90;;;;;;5136011;27;20487;-76
2022/01/12 11:39:00;;;;;;;18.75;5.05;;;4.90;99.90;;;;;;5136349;27;20456;-76
2022/01/12 11:41:34;;;;;;;24.52;4.93;;;5.00;99.90;;;;;;5135964;27;20046;-76
2022/01/12 11:44:23;;;;;;;23.02;4.20;;;5.00;99.90;;;;;;5100600;27;20074;-75
2022/01/12 11:46:56;;;;;;;20.52;4.82;;;5.70;99.90;;;;;;5117804;27;20075;-77
2022/01/12 11:49:30;;;;;;;23.40;5.03;;;4.90;99.90;;;;;;5117067;27;20066;-76
2022/01/12 11:52:00;;;;;;;14.75;5.32;;;5.20;99.90;;;;;;5116642;27;20050;-76
2022/01/12 11:54:33;;;;;;;13.65;4.88;;;5.00;99.90;;;;;;5117395;27;20170;-76
2022/01/12 11:57:02;;;;;;;15.27;5.27;;;5.20;99.90;;;;;;5117260;27;20046;-77
2022/01/12 11:59:30;;;;;;;24.60;6.13;;;5.60;99.90;;;;;;5136037;27;20099;-77
2022/01/12 12:02:11;;;;;;;17.98;4.68;;;5.90;99.90;;;;;;5135447;27;20099;-76
2022/01/12 12:04:37;;;;;;;12.52;4.47;;;5.10;99.90;;;;;;5130141;27;20503;-76
2022/01/12 12:07:14;;;;;;;15.98;5.05;;;5.20;99.90;;;;;;5083939;27;20051;-75
2022/01/12 12:09:53;;;;;;;17.98;5.38;;;5.40;99.90;;;;;;5117456;27;20487;-77
2022/01/12 12:12:26;;;;;;;16.70;5.60;;;5.80;99.90;;;;;;5135492;27;20054;-76
2022/01/12 12:14:55;;;;;;;27.63;6.65;;;5.30;99.90;;;;;;5101288;27;20086;-78
2022/01/12 12:17:22;;;;;;;18.25;6.82;;;5.20;99.90;;;;;;5099616;27;20513;-75
2022/01/12 12:19:49;;;;;;;15.23;6.13;;;5.30;99.90;;;;;;5117060;27;20043;-76
2022/01/12 12:22:25;;;;;;;13.85;5.50;;;5.60;99.90;;;;;;5117111;27;20054;-77
2022/01/12 12:25:03;;;;;;;17.58;6.50;;;5.30;99.90;;;;;;5116614;27;20047;-77
2022/01/12 12:27:31;;;;;;;15.88;6.10;;;5.50;99.90;;;;;;5116848;27;20047;-76
2022/01/12 12:29:58;;;;;;;21.52;6.95;;;5.40;99.90;;;;;;5116845;27;20058;-76
2022/01/12 12:32:41;;;;;;;17.80;6.30;;;5.20;99.90;;;;;;5082440;27;20131;-77
2022/01/12 12:35:10;;;;;;;12.90;5.70;;;5.40;99.90;;;;;;5099900;27;20054;-77
2022/01/12 12:37:56;;;;;;;15.07;6.82;;;5.80;99.90;;;;;;5135008;27;20433;-76
2022/01/12 12:40:24;;;;;;;15.60;5.60;;;5.40;99.90;;;;;;5135582;27;20130;-76
2022/01/12 12:43:14;;;;;;;17.70;6.10;;;5.20;99.90;;;;;;5100018;27;20086;-74
2022/01/12 12:45:44;;;;;;;16.88;6.32;;;5.40;99.90;;;;;;5117428;27;20085;-75
2022/01/12 12:48:13;;;;;;;15.25;6.57;;;5.30;99.90;;;;;;5117417;27;20039;-74
2022/01/12 12:50:39;;;;;;;16.73;6.65;;;5.70;99.90;;;;;;5100884;27;20051;-74
2022/01/12 12:53:06;;;;;;;17.33;6.32;;;5.60;99.90;;;;;;5083339;27;20047;-74
2022/01/12 12:55:41;;;;;;;16.88;6.38;;;5.50;99.90;;;;;;5100109;27;20053;-73
2022/01/12 12:58:07;;;;;;;13.93;5.88;;;5.70;99.90;;;;;;5116765;27;20047;-74
2022/01/12 13:00:35;;;;;;;13.93;6.50;;;5.70;99.90;;;;;;5135145;27;20039;-74
2022/01/12 13:03:02;;;;;;;13.90;5.88;;;5.80;99.90;;;;;;5117211;27;20043;-74
2022/01/12 13:05:43;;;;;;;14.80;6.00;;;6.50;99.90;;;;;;5116819;27;20043;-74
2022/01/12 13:08:10;;;;;;;15.65;6.05;;;5.60;99.90;;;;;;5134949;27;20047;-74
2022/01/12 13:10:36;;;;;;;19.08;6.70;;;6.50;99.90;;;;;;5099504;28;20051;-73
2022/01/12 13:13:05;;;;;;;15.93;6.10;;;5.60;99.90;;;;;;5099746;27;20146;-73
2022/01/12 13:15:34;;;;;;;17.17;6.35;;;5.60;99.90;;;;;;5099801;27;20059;-73
2022/01/12 13:18:08;;;;;;;14.80;5.93;;;5.60;99.90;;;;;;5100105;27;20107;-73
2022/01/12 13:23:21;;;;;;;15.75;6.85;;;5.70;99.90;;;;;;5116527;27;20497;-74
2022/01/12 13:26:05;;;;;;;18.90;6.57;;;5.50;99.90;;;;;;5116619;28;20391;-73
2022/01/12 13:28:31;;;;;;;16.13;6.10;;;5.60;99.90;;;;;;5101840;27;20043;-73
2022/01/12 13:31:06;;;;;;;16.17;6.75;;;5.70;99.90;;;;;;5116580;28;20399;-73
2022/01/12 13:33:38;;;;;;;17.35;6.60;;;5.60;99.90;;;;;;5116614;28;20050;-74
2022/01/12 13:36:33;;;;;;;15.95;6.75;;;5.90;99.90;;;;;;5100180;28;20085;-74
2022/01/12 13:39:09;;;;;;;15.48;6.25;;;5.70;99.90;;;;;;5112277;28;20047;-74
2022/01/12 13:41:36;;;;;;;16.40;6.25;;;5.70;99.90;;;;;;5100172;28;20423;-74
2022/01/12 13:44:20;;;;;;;14.48;6.28;;;6.00;99.90;;;;;;5099201;28;20043;-74
2022/01/12 13:47:04;;;;;;;;;;;5.90;99.90;;;;;;5099851;28;20467;-74
2022/01/12 13:49:30;;;;;;;13.88;5.35;;;6.00;99.90;;;;;;5116351;28;19919;-74
2022/01/12 13:52:08;;;;;;;16.58;6.63;;;5.80;99.90;;;;;;5099252;28;20046;-74
2022/01/12 13:54:40;;;;;;;20.10;6.22;;;5.80;99.90;;;;;;5116254;28;20039;-75
2022/01/12 13:57:09;;;;;;;15.68;5.88;;;6.00;99.90;;;;;;5099708;28;20142;-75
2022/01/12 13:59:47;;;;;;;12.57;5.90;;;5.80;99.90;;;;;;5135081;28;20047;-75
2022/01/12 14:02:14;;;;;;;11.05;5.18;;;5.80;99.90;;;;;;5099467;28;20051;-73
2022/01/12 14:04:45;;;;;;;13.68;4.90;;;6.00;99.90;;;;;;5116844;28;20100;-75
2022/01/12 14:07:21;;;;;;;12.85;5.13;;;6.10;99.90;;;;;;5116499;28;20043;-74
2022/01/12 14:09:57;;;;;;;12.25;5.40;;;5.80;99.90;;;;;;5115848;28;20062;-74